Main page
METAR-TAF:

METAR-TAF

Airports :

Madrid-Getafe, Spain

Getafe Air Base

latitude: 40-18N, longitude: 003-43W, elevation: 620 m

Current weather observation

The report was made 9 hours and 50 minutes ago, at 18:00 UTC
Wind 5 kt from the South
Temperature 25°C
Humidity 26%
Pressure 1020 hPa
Visibility 10 km or more
no clouds below 1500 m and no cumulonimbus

METAR: LEGT 191800Z 17005KT CAVOK 25/04 Q1020

Time: 05:50 (03:50 UTC)

Forecast

The report was made 10 hours and 50 minutes ago, at 17:00 UTC
Forecast valid from 19 at 18 UTC to 20 at 03 UTC
Wind 5 kt from variable directions
Visibility 10 km or more
no clouds below 1500 m and no cumulonimbus

TAF: LEGT 191700Z 1918/2003 VRB05KT CAVOK

Weather observations and forecasts of more than 4000 airports (METAR and TAF reports).

The available stations are represented by yellow and red dots on the map.

Hover mouse over dot to see the name of the station.

Then click to see weather observations and forecasts.

To change the map : click on the green buttons with a black cross to zoom in, on the green button with a dash to zoom out, or on the green arrows for adjacent maps.


METAR-TAF: